createdAt,value
2022-08-23T00:00:14.795Z,100633.83
2022-08-23T00:02:48.838Z,100636.66
2022-08-23T00:05:21.582Z,100633.97
2022-08-23T00:07:53.628Z,100638.62
2022-08-23T00:10:25.771Z,100639.89
2022-08-23T00:12:57.864Z,100642.72
2022-08-23T00:15:29.920Z,100638.62
2022-08-23T00:18:02.303Z,100636.95
2022-08-23T00:20:34.407Z,100643.73
2022-08-23T00:23:06.679Z,100638.36
2022-08-23T00:25:38.671Z,100646.86
2022-08-23T00:28:12.516Z,100645.31
2022-08-23T00:30:44.507Z,100640.50
2022-08-23T00:33:16.647Z,100642.49
2022-08-23T00:35:48.679Z,100656.31
2022-08-23T00:38:32.681Z,100659.12
2022-08-23T00:40:56.254Z,100658.71
2022-08-23T00:43:51.908Z,100656.17
2022-08-23T00:47:00.167Z,100649.26
2022-08-23T00:49:34.459Z,100662.53
2022-08-23T00:52:15.595Z,100655.75
2022-08-23T00:54:49.002Z,100661.48
2022-08-23T00:57:21.533Z,100659.94
2022-08-23T00:59:53.755Z,100662.89
2022-08-23T01:02:26.335Z,100664.45
2022-08-23T01:07:45.951Z,100664.30
2022-08-23T01:10:29.835Z,100669.38
2022-08-23T01:13:04.900Z,100673.45
2022-08-23T01:15:42.950Z,100670.20
2022-08-23T01:18:18.340Z,100679.50
2022-08-23T01:21:05.741Z,100677.22
2022-08-23T01:23:45.319Z,100681.72
2022-08-23T01:26:22.102Z,100680.30
2022-08-23T01:28:55.858Z,100685.09
2022-08-23T01:31:28.953Z,100690.58
2022-08-23T01:34:08.352Z,100686.21
2022-08-23T01:36:41.075Z,100685.22
2022-08-23T01:39:13.632Z,100692.43
2022-08-23T01:41:46.153Z,100690.58
2022-08-23T01:44:18.414Z,100689.75
2022-08-23T01:46:50.617Z,100696.80
2022-08-23T01:49:24.571Z,100691.44
2022-08-23T01:51:56.670Z,100694.37
2022-08-23T01:57:07.320Z,100705.52
2022-08-23T01:59:39.056Z,100698.44
2022-08-23T02:02:11.499Z,100704.53
2022-08-23T02:04:43.710Z,100702.50
2022-08-23T02:07:15.739Z,100710.20
2022-08-23T02:09:49.489Z,100707.81
2022-08-23T02:12:21.860Z,100705.52
2022-08-23T02:14:55.639Z,100713.55
2022-08-23T02:17:29.495Z,100704.09
2022-08-23T02:20:03.308Z,100711.39
2022-08-23T02:22:35.548Z,100706.90
2022-08-23T02:25:08.355Z,100715.37
2022-08-23T02:27:43.022Z,100711.58
2022-08-23T02:30:16.302Z,100719.09
2022-08-23T02:32:48.709Z,100719.82
2022-08-23T02:35:21.326Z,100718.86
2022-08-23T02:37:55.212Z,100720.77
2022-08-23T02:40:27.286Z,100720.20
2022-08-23T02:43:00.153Z,100720.20
2022-08-23T02:45:32.663Z,100718.23
2022-08-23T02:48:05.264Z,100720.08
2022-08-23T02:50:39.659Z,100723.71
2022-08-23T02:53:12.122Z,100723.02
2022-08-23T02:55:46.577Z,100726.39
2022-08-23T02:58:18.634Z,100721.03
2022-08-23T03:00:51.900Z,100721.89
2022-08-23T03:03:26.183Z,100717.23
2022-08-23T03:05:58.546Z,100724.31
2022-08-23T03:08:32.603Z,100723.36
2022-08-23T03:11:09.726Z,100732.09
2022-08-23T03:13:40.187Z,100728.45
2022-08-23T03:16:12.808Z,100726.47
2022-08-23T03:18:47.935Z,100731.70
2022-08-23T03:21:21.358Z,100731.70
2022-08-23T03:23:53.321Z,100742.89
2022-08-23T03:26:25.932Z,100737.36
2022-08-23T03:28:59.040Z,100739.91
2022-08-23T03:31:33.437Z,100744.02
2022-08-23T03:34:07.995Z,100745.44
2022-08-23T03:36:41.024Z,100746.00
2022-08-23T03:39:14.011Z,100751.95
2022-08-23T03:41:46.509Z,100746.30
2022-08-23T03:44:18.933Z,100752.83
2022-08-23T03:46:52.221Z,100753.98
2022-08-23T03:49:24.471Z,100756.40
2022-08-23T03:54:30.224Z,100764.44
2022-08-23T03:57:05.401Z,100756.86
2022-08-23T03:59:41.156Z,100761.52
2022-08-23T04:02:14.953Z,100767.20
2022-08-23T04:04:47.018Z,100764.81
2022-08-23T04:07:37.394Z,100769.78
2022-08-23T04:10:13.103Z,100769.34
2022-08-23T04:12:46.497Z,100774.72
2022-08-23T04:15:20.511Z,100770.08
2022-08-23T04:17:53.027Z,100779.55
2022-08-23T04:20:26.110Z,100779.11
2022-08-23T04:23:03.993Z,100780.66
2022-08-23T04:25:38.131Z,100781.25
2022-08-23T04:28:10.472Z,100778.12
2022-08-23T04:30:43.548Z,100785.31
2022-08-23T04:33:19.141Z,100782.77
2022-08-23T04:35:52.982Z,100784.80
2022-08-23T04:38:25.765Z,100788.59
2022-08-23T04:41:18.108Z,100788.03
2022-08-23T04:43:51.729Z,100787.76
2022-08-23T04:46:24.063Z,100790.71
2022-08-23T04:48:57.348Z,100785.75
2022-08-23T04:51:29.499Z,100783.47
2022-08-23T04:54:03.472Z,100787.14
2022-08-23T04:56:43.597Z,100787.41
2022-08-23T04:59:16.360Z,100791.04
2022-08-23T05:01:49.982Z,100793.45
2022-08-23T05:04:22.689Z,100783.20
2022-08-23T05:06:55.261Z,100785.11
2022-08-23T05:09:27.821Z,100786.31
2022-08-23T05:12:00.621Z,100795.88
2022-08-23T05:14:35.139Z,100796.09
2022-08-23T05:17:08.455Z,100787.72
2022-08-23T05:19:47.004Z,100783.52
2022-08-23T05:22:17.850Z,100788.34
2022-08-23T05:24:51.824Z,100791.55
2022-08-23T05:27:24.232Z,100791.65
2022-08-23T05:29:57.451Z,100798.33
2022-08-23T05:32:33.295Z,100800.77
2022-08-23T05:35:04.606Z,100794.27
2022-08-23T05:37:38.626Z,100795.26
2022-08-23T05:40:12.158Z,100792.58
2022-08-23T05:42:46.579Z,100794.81
2022-08-23T05:45:21.964Z,100793.48
2022-08-23T05:47:53.640Z,100803.80
2022-08-23T05:50:29.866Z,100789.66
2022-08-23T05:53:04.364Z,100797.43
2022-08-23T05:55:38.399Z,100807.55
2022-08-23T05:58:21.551Z,100792.73
2022-08-23T06:00:55.569Z,100797.56
2022-08-23T06:03:28.293Z,100801.14
2022-08-23T06:06:02.169Z,100801.34
2022-08-23T06:08:35.927Z,100798.86
2022-08-23T06:11:11.721Z,100802.63
2022-08-23T06:13:49.539Z,100809.56
2022-08-23T06:16:24.717Z,100814.10
2022-08-23T06:18:58.332Z,100810.55
2022-08-23T06:21:45.171Z,100809.33
2022-08-23T06:24:17.782Z,100809.80
2022-08-23T06:26:58.011Z,100818.06
2022-08-23T06:29:30.379Z,100814.67
2022-08-23T06:32:08.393Z,100814.18
2022-08-23T06:34:42.498Z,100819.45
2022-08-23T06:37:28.034Z,100824.34
2022-08-23T06:40:05.753Z,100818.27
2022-08-23T06:42:42.199Z,100819.78
2022-08-23T06:45:14.536Z,100832.11
2022-08-23T06:47:48.191Z,100827.73
2022-08-23T06:50:20.999Z,100829.73
2022-08-23T06:53:12.542Z,100829.50
2022-08-23T06:55:52.231Z,100837.47
2022-08-23T06:58:41.501Z,100834.18
2022-08-23T07:01:45.345Z,100820.61
2022-08-23T07:04:15.831Z,100822.17
2022-08-23T07:07:11.144Z,100824.50
2022-08-23T07:09:41.526Z,100821.09
2022-08-23T07:12:13.735Z,100816.16
2022-08-23T07:14:47.339Z,100820.39
2022-08-23T07:17:19.920Z,100819.33
2022-08-23T07:19:53.633Z,100820.07
2022-08-23T07:22:26.463Z,100835.65
2022-08-23T07:24:58.980Z,100827.61
2022-08-23T07:27:33.501Z,100830.52
2022-08-23T07:30:07.958Z,100830.77
2022-08-23T07:32:40.940Z,100833.45
2022-08-23T07:35:26.581Z,100837.13
2022-08-23T07:38:01.158Z,100836.28
2022-08-23T07:40:38.910Z,100828.91
2022-08-23T07:43:12.352Z,100836.02
2022-08-23T07:45:48.137Z,100841.02
2022-08-23T07:48:37.328Z,100839.06
2022-08-23T07:51:05.377Z,100830.89
2022-08-23T07:53:43.013Z,100828.66
2022-08-23T07:56:17.287Z,100835.32
2022-08-23T07:59:11.367Z,100833.90
2022-08-23T08:01:48.257Z,100834.16
2022-08-23T08:04:20.359Z,100837.50
2022-08-23T08:07:16.901Z,100837.84
2022-08-23T08:09:27.932Z,100832.52
2022-08-23T08:12:00.769Z,100846.03
2022-08-23T08:14:36.300Z,100830.91
2022-08-23T08:17:09.149Z,100836.77
2022-08-23T08:19:59.586Z,100833.72
2022-08-23T08:22:48.529Z,100829.80
2022-08-23T08:25:34.559Z,100829.02
2022-08-23T08:28:11.581Z,100819.05
2022-08-23T08:30:42.464Z,100831.03
2022-08-23T08:33:15.091Z,100831.09
2022-08-23T08:35:57.757Z,100834.25
2022-08-23T08:38:24.050Z,100829.42
2022-08-23T08:41:03.810Z,100819.16
2022-08-23T08:44:15.815Z,100819.98
2022-08-23T08:46:48.942Z,100820.86
2022-08-23T08:49:31.961Z,100825.45
2022-08-23T08:52:16.517Z,100826.93
2022-08-23T08:54:53.182Z,100818.14
2022-08-23T08:57:27.659Z,100826.30
2022-08-23T09:00:04.190Z,100817.94
2022-08-23T09:02:39.501Z,100830.47
2022-08-23T09:05:16.010Z,100821.62
2022-08-23T09:08:09.237Z,100829.75
2022-08-23T09:10:44.637Z,100819.80
2022-08-23T09:13:25.823Z,100817.23
2022-08-23T09:16:16.930Z,100817.39
2022-08-23T09:18:49.622Z,100815.47
2022-08-23T09:21:23.155Z,100823.56
2022-08-23T09:24:00.458Z,100809.95
2022-08-23T09:26:32.802Z,100813.09
2022-08-23T09:29:17.426Z,100813.67
2022-08-23T09:32:01.759Z,100810.71
2022-08-23T09:34:36.951Z,100813.37
2022-08-23T09:37:19.574Z,100818.05
2022-08-23T09:39:55.623Z,100808.74
2022-08-23T09:42:31.059Z,100807.74
2022-08-23T09:45:05.385Z,100807.55
2022-08-23T09:47:44.553Z,100802.58
2022-08-23T09:50:27.638Z,100803.73
2022-08-23T09:53:14.726Z,100799.41
2022-08-23T09:55:57.372Z,100801.97
2022-08-23T09:58:38.943Z,100804.94
2022-08-23T10:01:17.462Z,100812.12
2022-08-23T10:04:10.419Z,100805.84
2022-08-23T10:06:46.488Z,100811.07
2022-08-23T10:09:35.605Z,100802.90
2022-08-23T10:12:09.162Z,100806.30
2022-08-23T10:14:44.038Z,100806.36
2022-08-23T10:17:23.771Z,100806.80
2022-08-23T10:20:06.731Z,100801.56
2022-08-23T10:22:47.803Z,100804.11
2022-08-23T10:25:30.446Z,100802.65
2022-08-23T10:28:26.216Z,100806.44
2022-08-23T10:31:14.305Z,100793.47
2022-08-23T10:34:13.326Z,100791.20
2022-08-23T10:37:03.873Z,100789.73
2022-08-23T10:39:39.899Z,100791.00
2022-08-23T10:42:18.194Z,100793.11
2022-08-23T10:44:54.053Z,100790.59
2022-08-23T10:47:43.147Z,100795.63
2022-08-23T10:50:20.340Z,100789.35
2022-08-23T10:52:58.614Z,100794.17
2022-08-23T10:55:38.701Z,100788.09
2022-08-23T10:58:15.006Z,100790.58
2022-08-23T11:00:47.743Z,100790.36
2022-08-23T11:03:28.221Z,100793.32
2022-08-23T11:06:34.912Z,100792.03
2022-08-23T11:09:22.592Z,100793.41
2022-08-23T11:12:17.763Z,100791.08
2022-08-23T11:15:02.136Z,100776.20
2022-08-23T11:17:44.044Z,100791.38
2022-08-23T11:20:36.466Z,100780.33
2022-08-23T11:23:12.075Z,100792.08
2022-08-23T11:25:46.801Z,100782.66
2022-08-23T11:28:30.610Z,100782.27
2022-08-23T11:31:14.356Z,100799.76
2022-08-23T11:33:56.490Z,100777.60
2022-08-23T11:36:31.417Z,100776.80
2022-08-23T11:39:12.521Z,100776.20
2022-08-23T11:42:01.488Z,100776.36
2022-08-23T11:44:38.397Z,100774.00
2022-08-23T11:47:13.109Z,100783.56
2022-08-23T11:50:00.542Z,100780.17
2022-08-23T11:52:48.703Z,100782.80
2022-08-23T11:55:43.295Z,100787.45
2022-08-23T11:58:33.500Z,100780.48
2022-08-23T12:01:14.569Z,100783.55
2022-08-23T12:04:02.447Z,100769.17
2022-08-23T12:06:54.135Z,100777.86
2022-08-23T12:09:30.729Z,100780.98
2022-08-23T12:12:09.118Z,100776.73
2022-08-23T12:14:47.498Z,100772.56
2022-08-23T12:17:24.939Z,100776.88
2022-08-23T12:20:16.343Z,100765.20
2022-08-23T12:23:06.810Z,100772.34
2022-08-23T12:25:39.885Z,100766.80
2022-08-23T12:28:26.521Z,100760.91
2022-08-23T12:31:07.825Z,100756.48
2022-08-23T12:33:53.366Z,100749.70
2022-08-23T12:36:54.363Z,100751.87
2022-08-23T12:39:36.358Z,100755.43
2022-08-23T12:42:20.222Z,100753.08
2022-08-23T12:45:07.320Z,100750.19
2022-08-23T12:47:43.178Z,100746.09
2022-08-23T12:50:18.334Z,100746.27
2022-08-23T12:53:04.709Z,100748.59
2022-08-23T12:55:39.695Z,100750.81
2022-08-23T12:58:13.243Z,100747.94
2022-08-23T13:00:57.835Z,100751.34
2022-08-23T13:03:42.393Z,100744.20
2022-08-23T13:06:23.540Z,100734.59
2022-08-23T13:09:01.879Z,100739.06
2022-08-23T13:11:37.470Z,100737.12
2022-08-23T13:14:31.300Z,100728.57
2022-08-23T13:17:29.213Z,100738.84
2022-08-23T13:20:10.574Z,100738.67
2022-08-23T13:23:04.379Z,100731.95
2022-08-23T13:25:42.902Z,100730.44
2022-08-23T13:28:31.193Z,100732.66
2022-08-23T13:31:06.268Z,100731.45
2022-08-23T13:33:41.077Z,100724.91
2022-08-23T13:36:18.638Z,100719.12
2022-08-23T13:38:52.427Z,100720.86
2022-08-23T13:41:30.432Z,100721.00
2022-08-23T13:44:05.525Z,100716.55
2022-08-23T13:46:40.731Z,100718.02
2022-08-23T13:49:18.963Z,100714.52
2022-08-23T13:52:41.314Z,100721.33
2022-08-23T13:54:41.842Z,100719.92
2022-08-23T13:57:17.133Z,100719.23
2022-08-23T13:59:52.105Z,100721.75
2022-08-23T14:02:25.588Z,100714.08
2022-08-23T14:04:57.815Z,100717.17
2022-08-23T14:07:30.314Z,100708.45
2022-08-23T14:10:03.320Z,100714.22
2022-08-23T14:12:36.658Z,100717.02
2022-08-23T14:15:09.950Z,100700.31
2022-08-23T14:17:50.875Z,100707.20
2022-08-23T14:20:43.276Z,100704.18
2022-08-23T14:23:05.642Z,100703.70
2022-08-23T14:25:34.833Z,100699.33
2022-08-23T14:28:07.079Z,100704.42
2022-08-23T14:30:39.596Z,100708.67
2022-08-23T14:33:11.919Z,100696.56
2022-08-23T14:35:44.942Z,100702.59
2022-08-23T14:38:19.114Z,100695.26
2022-08-23T14:41:01.247Z,100705.25
2022-08-23T14:43:34.799Z,100698.98
2022-08-23T14:46:06.170Z,100704.14
2022-08-23T14:48:38.270Z,100710.08
2022-08-23T14:51:25.562Z,100702.08
2022-08-23T14:53:58.217Z,100710.44
2022-08-23T14:56:32.616Z,100695.92
2022-08-23T14:59:04.898Z,100699.92
2022-08-23T15:01:38.002Z,100703.47
2022-08-23T15:04:10.946Z,100710.57
2022-08-23T15:07:00.421Z,100707.36
2022-08-23T15:09:17.058Z,100705.91
2022-08-23T15:14:24.674Z,100704.81
2022-08-23T15:16:57.550Z,100707.08
2022-08-23T15:19:30.546Z,100704.70
2022-08-23T15:22:15.853Z,100709.42
2022-08-23T15:24:39.300Z,100714.13
2022-08-23T15:27:12.680Z,100714.13
2022-08-23T15:29:45.023Z,100714.63
2022-08-23T15:32:22.655Z,100707.50
2022-08-23T15:34:51.807Z,100713.80
2022-08-23T15:37:24.467Z,100714.01
2022-08-23T15:39:57.170Z,100711.91
2022-08-23T15:42:29.514Z,100709.59
2022-08-23T15:45:01.824Z,100709.59
2022-08-23T15:47:36.964Z,100706.19
2022-08-23T15:50:10.801Z,100709.77
2022-08-23T15:52:43.598Z,100705.56
2022-08-23T15:55:16.143Z,100706.58
2022-08-23T15:57:51.392Z,100711.19
2022-08-23T16:00:25.137Z,100710.27
2022-08-23T16:03:19.252Z,100704.15
2022-08-23T16:05:32.119Z,100712.28
2022-08-23T16:08:05.097Z,100710.55
2022-08-23T16:10:39.119Z,100711.28
2022-08-23T16:13:11.718Z,100722.95
2022-08-23T16:15:44.296Z,100718.69
2022-08-23T16:18:16.657Z,100717.33
2022-08-23T16:20:48.819Z,100718.87
2022-08-23T16:23:23.822Z,100718.40
2022-08-23T16:26:00.856Z,100729.61
2022-08-23T16:28:30.195Z,100725.30
2022-08-23T16:31:02.550Z,100726.17
2022-08-23T16:33:35.467Z,100727.72
2022-08-23T16:36:08.979Z,100731.34
2022-08-23T16:38:41.264Z,100732.03
2022-08-23T16:41:14.265Z,100735.08
2022-08-23T16:43:47.772Z,100740.97
2022-08-23T16:46:22.016Z,100741.81
2022-08-23T16:48:54.481Z,100746.06
2022-08-23T16:51:27.655Z,100752.59
2022-08-23T16:54:02.720Z,100757.17
2022-08-23T16:56:35.260Z,100759.12
2022-08-23T16:59:09.980Z,100760.70
2022-08-23T17:01:48.813Z,100766.20
2022-08-23T17:04:24.968Z,100759.55
2022-08-23T17:06:59.656Z,100771.14
2022-08-23T17:09:31.810Z,100770.29
2022-08-23T17:12:04.451Z,100773.92
2022-08-23T17:14:36.773Z,100771.25
2022-08-23T17:17:09.104Z,100773.67
2022-08-23T17:19:42.017Z,100774.38
2022-08-23T17:22:14.353Z,100776.52
2022-08-23T17:24:47.757Z,100779.40
2022-08-23T17:27:21.995Z,100775.25
2022-08-23T17:29:54.633Z,100786.61
2022-08-23T17:32:28.529Z,100779.04
2022-08-23T17:35:00.779Z,100787.05
2022-08-23T17:37:33.446Z,100790.06
2022-08-23T17:40:11.070Z,100791.62
2022-08-23T17:42:47.956Z,100793.17
2022-08-23T17:45:20.665Z,100793.22
2022-08-23T17:47:52.680Z,100801.20
2022-08-23T17:50:26.092Z,100795.97
2022-08-23T17:52:58.408Z,100796.34
2022-08-23T17:55:32.751Z,100802.58
2022-08-23T17:58:06.296Z,100792.47
2022-08-23T18:00:40.236Z,100789.08
2022-08-23T18:03:12.537Z,100791.96
2022-08-23T18:05:46.322Z,100793.33
2022-08-23T18:08:19.063Z,100794.39
2022-08-23T18:10:51.804Z,100784.77
2022-08-23T18:13:24.020Z,100799.67
2022-08-23T18:15:56.301Z,100797.53
2022-08-23T18:18:30.564Z,100797.38
2022-08-23T18:21:08.401Z,100796.71
2022-08-23T18:23:41.663Z,100803.14
2022-08-23T18:26:32.745Z,100805.52
2022-08-23T18:29:06.211Z,100803.48
2022-08-23T18:31:38.574Z,100804.66
2022-08-23T18:34:11.530Z,100808.22
2022-08-23T18:36:45.091Z,100813.47
2022-08-23T18:39:29.224Z,100810.07
2022-08-23T18:41:53.284Z,100803.81
2022-08-23T18:44:25.650Z,100808.20
2022-08-23T18:46:58.294Z,100807.52
2022-08-23T18:49:30.944Z,100803.45
2022-08-23T18:52:03.742Z,100818.49
2022-08-23T18:54:37.358Z,100808.38
2022-08-23T18:57:09.428Z,100806.53
2022-08-23T18:59:43.674Z,100811.41
2022-08-23T19:02:16.363Z,100815.46
2022-08-23T19:04:48.730Z,100811.94
2022-08-23T19:07:21.084Z,100812.42
2022-08-23T19:09:53.510Z,100808.38
2022-08-23T19:12:26.396Z,100810.05
2022-08-23T19:14:58.736Z,100803.13
2022-08-23T19:17:32.499Z,100806.84
2022-08-23T19:20:06.443Z,100812.09
2022-08-23T19:22:38.555Z,100806.52
2022-08-23T19:25:11.366Z,100812.09
2022-08-23T19:27:43.566Z,100820.36
2022-08-23T19:30:17.602Z,100821.53
2022-08-23T19:32:49.806Z,100822.55
2022-08-23T19:35:21.922Z,100819.69
2022-08-23T19:37:54.295Z,100821.86
2022-08-23T19:40:26.935Z,100828.78
2022-08-23T19:43:00.974Z,100819.00
2022-08-23T19:45:34.656Z,100822.39
2022-08-23T19:48:07.148Z,100819.69
2022-08-23T19:50:41.794Z,100826.94
2022-08-23T19:53:14.969Z,100828.78
2022-08-23T19:55:48.205Z,100833.69
2022-08-23T19:58:20.688Z,100833.19
2022-08-23T20:00:52.738Z,100846.70
2022-08-23T20:03:24.945Z,100842.41
2022-08-23T20:05:57.547Z,100847.60
2022-08-23T20:08:31.018Z,100840.17
2022-08-23T20:11:03.042Z,100848.09
2022-08-23T20:13:35.282Z,100839.80
2022-08-23T20:16:07.437Z,100837.75
2022-08-23T20:18:39.662Z,100844.64
2022-08-23T20:21:11.842Z,100850.86
2022-08-23T20:24:03.597Z,100845.39
2022-08-23T20:26:54.026Z,100854.81
2022-08-23T20:29:27.695Z,100850.59
2022-08-23T20:32:06.889Z,100860.52
2022-08-23T20:34:41.363Z,100864.34
2022-08-23T20:37:14.586Z,100871.26
2022-08-23T20:39:46.915Z,100866.02
2022-08-23T20:42:19.659Z,100866.48
2022-08-23T20:44:52.366Z,100865.66
2022-08-23T20:47:24.837Z,100868.82
2022-08-23T20:49:56.899Z,100867.96
2022-08-23T20:52:34.016Z,100865.42
2022-08-23T20:55:03.920Z,100867.45
2022-08-23T20:57:38.503Z,100872.33
2022-08-23T21:00:29.191Z,100869.94
2022-08-23T21:03:19.247Z,100878.48
2022-08-23T21:05:52.083Z,100876.44
2022-08-23T21:08:24.701Z,100874.20
2022-08-23T21:10:57.750Z,100880.05
2022-08-23T21:13:30.322Z,100875.42
2022-08-23T21:16:02.787Z,100871.50
2022-08-23T21:18:35.282Z,100876.82
2022-08-23T21:21:07.925Z,100877.61
2022-08-23T21:23:40.847Z,100873.00
2022-08-23T21:26:12.932Z,100876.15
2022-08-23T21:28:45.953Z,100876.78
2022-08-23T21:31:21.462Z,100886.17
2022-08-23T21:33:55.094Z,100884.07
2022-08-23T21:36:27.664Z,100889.94
2022-08-23T21:39:00.278Z,100891.20
2022-08-23T21:41:41.337Z,100889.67
2022-08-23T21:44:16.147Z,100881.36
2022-08-23T21:46:49.178Z,100883.48
2022-08-23T21:49:24.202Z,100884.49
2022-08-23T21:51:56.547Z,100891.56
2022-08-23T21:54:29.564Z,100894.97
2022-08-23T21:57:01.864Z,100900.49
2022-08-23T21:59:34.293Z,100895.64
2022-08-23T22:02:07.293Z,100892.80
2022-08-23T22:04:40.548Z,100892.66
2022-08-23T22:07:16.296Z,100896.50
2022-08-23T22:09:50.433Z,100896.94
2022-08-23T22:12:25.100Z,100900.40
2022-08-23T22:14:57.304Z,100899.45
2022-08-23T22:17:29.794Z,100892.81
2022-08-23T22:20:03.884Z,100895.69
2022-08-23T22:22:38.118Z,100900.20
2022-08-23T22:25:10.214Z,100900.20
2022-08-23T22:27:46.012Z,100907.08
2022-08-23T22:30:19.324Z,100901.21
2022-08-23T22:32:51.502Z,100902.08
2022-08-23T22:35:23.807Z,100910.62
2022-08-23T22:38:12.777Z,100908.94
2022-08-23T22:40:29.783Z,100914.75
2022-08-23T22:43:02.824Z,100911.37
2022-08-23T22:45:36.471Z,100909.97
2022-08-23T22:48:08.972Z,100911.91
2022-08-23T22:50:41.795Z,100915.21
2022-08-23T22:53:14.421Z,100913.81
2022-08-23T22:55:53.065Z,100911.41
2022-08-23T22:58:25.263Z,100911.43
2022-08-23T23:00:57.512Z,100913.58
2022-08-23T23:03:30.135Z,100917.41
2022-08-23T23:06:02.366Z,100917.28
2022-08-23T23:08:34.403Z,100917.02
2022-08-23T23:11:09.493Z,100921.55
2022-08-23T23:13:42.354Z,100922.00
2022-08-23T23:16:17.723Z,100924.83
2022-08-23T23:19:08.414Z,100925.80
2022-08-23T23:21:43.455Z,100921.70
2022-08-23T23:24:19.325Z,100928.06
2022-08-23T23:26:52.433Z,100926.62
2022-08-23T23:29:25.003Z,100926.62
2022-08-23T23:31:57.432Z,100932.31
2022-08-23T23:34:30.072Z,100936.41
2022-08-23T23:37:02.679Z,100937.54
2022-08-23T23:39:34.923Z,100935.27
2022-08-23T23:42:07.594Z,100932.45
2022-08-23T23:44:39.605Z,100931.72
2022-08-23T23:47:11.972Z,100932.72
2022-08-23T23:49:44.314Z,100937.09
2022-08-23T23:52:16.673Z,100936.27
2022-08-23T23:54:48.757Z,100939.09
2022-08-23T23:57:21.595Z,100939.23
2022-08-23T23:59:55.556Z,100941.19
